Bay City, Michigan
Current Conditions -  °F | °C
As of 10:53 AM on Friday 19 Dec 2014 (Local Time) from KMBS Reporting Station
Clear Clear  
Wind Chill: 22°   Ceiling: Unl
Heat Index: 27°   Visibility: 10mi
Dew Point: 18°   Wind: 5mph
Humidity: 69%   Direction: NA
Pressure: 30.3"   Gusts: NA
Location:  43.6°N, 83.88°W
Report Text: KMBS 191553Z VRB04KT 10SM CLR M03/M08 A3030 RMK AO2 SLP271 T10281078
Loading
Personal Weather Stations






























Interactive Weather Map New forecast layout! Learn more

10-Day Weather Forecast

Advertisements
Track Severe Weather on mobile